sensor_id;sensor_type;location;lat;lon;timestamp;pressure;altitude;pressure_sealevel;temperature;humidity
63399;BME280;49533;-34.520;150.798;2023-05-15T00:01:28;101541.28;;;17.69;60.50
63399;BME280;49533;-34.520;150.798;2023-05-15T00:03:56;101529.31;;;17.65;60.65
63399;BME280;49533;-34.520;150.798;2023-05-15T00:06:23;101504.97;;;17.55;60.50
63399;BME280;49533;-34.520;150.798;2023-05-15T00:08:50;101495.75;;;17.51;60.48
63399;BME280;49533;-34.520;150.798;2023-05-15T00:11:17;101535.44;;;17.79;60.49
63399;BME280;49533;-34.520;150.798;2023-05-15T00:13:44;101533.13;;;17.81;60.74
63399;BME280;49533;-34.520;150.798;2023-05-15T00:16:11;101462.03;;;17.42;60.72
63399;BME280;49533;-34.520;150.798;2023-05-15T00:18:39;101494.38;;;17.66;60.79
63399;BME280;49533;-34.520;150.798;2023-05-15T00:21:06;101445.25;;;17.34;60.92
63399;BME280;49533;-34.520;150.798;2023-05-15T00:23:33;101537.13;;;17.93;61.13
63399;BME280;49533;-34.520;150.798;2023-05-15T00:26:00;101479.25;;;17.59;61.09
63399;BME280;49533;-34.520;150.798;2023-05-15T00:28:27;101529.81;;;17.97;61.13
63399;BME280;49533;-34.520;150.798;2023-05-15T00:30:54;101537.88;;;18.02;60.95
63399;BME280;49533;-34.520;150.798;2023-05-15T00:33:21;101534.00;;;18.03;61.50
63399;BME280;49533;-34.520;150.798;2023-05-15T00:35:49;101531.72;;;18.05;61.13
63399;BME280;49533;-34.520;150.798;2023-05-15T00:38:16;101522.72;;;17.96;61.06
63399;BME280;49533;-34.520;150.798;2023-05-15T00:40:44;101504.03;;;17.80;60.84
63399;BME280;49533;-34.520;150.798;2023-05-15T00:43:12;101479.19;;;17.68;61.12
63399;BME280;49533;-34.520;150.798;2023-05-15T00:45:41;101502.72;;;17.87;61.07
63399;BME280;49533;-34.520;150.798;2023-05-15T00:48:09;101471.22;;;17.75;60.92
63399;BME280;49533;-34.520;150.798;2023-05-15T00:50:38;101511.47;;;18.10;60.90
63399;BME280;49533;-34.520;150.798;2023-05-15T00:53:06;101472.94;;;17.89;61.29
63399;BME280;49533;-34.520;150.798;2023-05-15T00:55:34;101511.63;;;18.13;61.50
63399;BME280;49533;-34.520;150.798;2023-05-15T00:58:02;101451.50;;;17.82;61.32
63399;BME280;49533;-34.520;150.798;2023-05-15T01:00:30;101417.44;;;17.66;61.44
63399;BME280;49533;-34.520;150.798;2023-05-15T01:02:59;101496.50;;;18.19;61.66
63399;BME280;49533;-34.520;150.798;2023-05-15T01:05:27;101462.22;;;17.96;61.66
63399;BME280;49533;-34.520;150.798;2023-05-15T01:08:04;101493.09;;;18.22;61.27
63399;BME280;49533;-34.520;150.798;2023-05-15T01:10:34;101439.56;;;17.99;61.73
63399;BME280;49533;-34.520;150.798;2023-05-15T01:13:02;101477.53;;;18.27;61.63
63399;BME280;49533;-34.520;150.798;2023-05-15T01:15:30;101396.97;;;17.84;61.53
63399;BME280;49533;-34.520;150.798;2023-05-15T01:17:57;101482.34;;;18.30;61.66
63399;BME280;49533;-34.520;150.798;2023-05-15T01:20:26;101397.59;;;17.90;61.49
63399;BME280;49533;-34.520;150.798;2023-05-15T01:23:00;101457.84;;;18.37;61.59
63399;BME280;49533;-34.520;150.798;2023-05-15T01:25:45;101458.13;;;18.44;61.66
63399;BME280;49533;-34.520;150.798;2023-05-15T01:28:16;101406.41;;;18.16;61.56
63399;BME280;49533;-34.520;150.798;2023-05-15T01:30:47;101392.34;;;18.18;61.77
63399;BME280;49533;-34.520;150.798;2023-05-15T01:33:22;101386.00;;;18.17;61.97
63399;BME280;49533;-34.520;150.798;2023-05-15T01:35:58;101402.84;;;18.37;61.81
63399;BME280;49533;-34.520;150.798;2023-05-15T01:38:37;101404.84;;;18.49;61.86
63399;BME280;49533;-34.520;150.798;2023-05-15T01:41:15;101380.63;;;18.42;61.67
63399;BME280;49533;-34.520;150.798;2023-05-15T01:43:44;101335.19;;;18.23;61.39
63399;BME280;49533;-34.520;150.798;2023-05-15T01:46:18;101421.22;;;18.78;61.68
63399;BME280;49533;-34.520;150.798;2023-05-15T01:48:49;101390.22;;;18.69;61.63
63399;BME280;49533;-34.520;150.798;2023-05-15T01:51:18;101406.91;;;18.85;61.78
63399;BME280;49533;-34.520;150.798;2023-05-15T01:53:46;101392.44;;;18.88;61.78
63399;BME280;49533;-34.520;150.798;2023-05-15T01:56:17;101392.91;;;18.90;61.61
63399;BME280;49533;-34.520;150.798;2023-05-15T01:58:46;101340.06;;;18.63;61.61
63399;BME280;49533;-34.520;150.798;2023-05-15T02:01:15;101302.34;;;18.52;61.59
63399;BME280;49533;-34.520;150.798;2023-05-15T02:03:44;101374.78;;;19.01;61.54
63399;BME280;49533;-34.520;150.798;2023-05-15T02:06:12;101346.09;;;18.90;61.63
63399;BME280;49533;-34.520;150.798;2023-05-15T02:08:41;101363.28;;;18.99;61.37
63399;BME280;49533;-34.520;150.798;2023-05-15T02:11:08;101325.78;;;18.82;61.62
63399;BME280;49533;-34.520;150.798;2023-05-15T02:13:36;101371.94;;;19.10;61.61
63399;BME280;49533;-34.520;150.798;2023-05-15T02:16:03;101364.56;;;19.14;61.46
63399;BME280;49533;-34.520;150.798;2023-05-15T02:18:30;101330.03;;;18.92;61.50
63399;BME280;49533;-34.520;150.798;2023-05-15T02:20:58;101341.72;;;19.01;61.44
63399;BME280;49533;-34.520;150.798;2023-05-15T02:23:28;101333.59;;;19.05;61.39
63399;BME280;49533;-34.520;150.798;2023-05-15T02:26:09;101306.16;;;18.96;61.42
63399;BME280;49533;-34.520;150.798;2023-05-15T02:28:53;101349.53;;;19.24;61.34
63399;BME280;49533;-34.520;150.798;2023-05-15T02:31:33;101307.97;;;19.04;61.33
63399;BME280;49533;-34.520;150.798;2023-05-15T02:34:16;101286.41;;;18.94;61.24
63399;BME280;49533;-34.520;150.798;2023-05-15T02:36:46;101333.22;;;19.31;61.28
63399;BME280;49533;-34.520;150.798;2023-05-15T02:39:17;101300.66;;;19.08;61.34
63399;BME280;49533;-34.520;150.798;2023-05-15T02:41:49;101333.31;;;19.34;61.46
63399;BME280;49533;-34.520;150.798;2023-05-15T02:44:18;101327.94;;;19.38;61.38
63399;BME280;49533;-34.520;150.798;2023-05-15T02:46:46;101326.78;;;19.39;61.68
63399;BME280;49533;-34.520;150.798;2023-05-15T02:49:15;101304.03;;;19.30;61.92
63399;BME280;49533;-34.520;150.798;2023-05-15T02:51:42;101322.19;;;19.43;61.84
63399;BME280;49533;-34.520;150.798;2023-05-15T02:54:10;101324.94;;;19.43;61.82
63399;BME280;49533;-34.520;150.798;2023-05-15T02:56:37;101276.97;;;19.20;62.02
63399;BME280;49533;-34.520;150.798;2023-05-15T02:59:04;101304.28;;;19.37;62.00
63399;BME280;49533;-34.520;150.798;2023-05-15T03:01:32;101313.69;;;19.48;62.01
63399;BME280;49533;-34.520;150.798;2023-05-15T03:03:59;101311.34;;;19.50;62.11
63399;BME280;49533;-34.520;150.798;2023-05-15T03:06:26;101266.88;;;19.24;62.13
63399;BME280;49533;-34.520;150.798;2023-05-15T03:08:54;101153.03;;;18.55;62.11
63399;BME280;49533;-34.520;150.798;2023-05-15T03:11:21;101315.03;;;19.54;62.08
63399;BME280;49533;-34.520;150.798;2023-05-15T03:13:49;101314.69;;;19.56;62.02
63399;BME280;49533;-34.520;150.798;2023-05-15T03:16:16;101303.28;;;19.58;62.21
63399;BME280;49533;-34.520;150.798;2023-05-15T03:18:43;101292.44;;;19.49;62.19
63399;BME280;49533;-34.520;150.798;2023-05-15T03:21:10;101299.41;;;19.59;62.13
63399;BME280;49533;-34.520;150.798;2023-05-15T03:23:37;101299.84;;;19.61;61.96
63399;BME280;49533;-34.520;150.798;2023-05-15T03:26:04;101292.41;;;19.61;61.94
63399;BME280;49533;-34.520;150.798;2023-05-15T03:28:31;101304.69;;;19.64;61.86
63399;BME280;49533;-34.520;150.798;2023-05-15T03:30:58;101285.88;;;19.53;62.26
63399;BME280;49533;-34.520;150.798;2023-05-15T03:33:25;101292.81;;;19.63;62.24
63399;BME280;49533;-34.520;150.798;2023-05-15T03:35:52;101260.50;;;19.48;62.19
63399;BME280;49533;-34.520;150.798;2023-05-15T03:38:20;101269.97;;;19.63;62.19
63399;BME280;49533;-34.520;150.798;2023-05-15T03:40:47;101231.50;;;19.38;61.86
63399;BME280;49533;-34.520;150.798;2023-05-15T03:43:14;101238.34;;;19.44;61.71
63399;BME280;49533;-34.520;150.798;2023-05-15T03:45:41;101264.69;;;19.70;61.84
63399;BME280;49533;-34.520;150.798;2023-05-15T03:48:08;101222.53;;;19.41;61.79
63399;BME280;49533;-34.520;150.798;2023-05-15T03:50:36;101267.53;;;19.73;61.63
63399;BME280;49533;-34.520;150.798;2023-05-15T03:53:04;101194.09;;;19.25;61.81
63399;BME280;49533;-34.520;150.798;2023-05-15T03:55:31;101271.56;;;19.76;61.75
63399;BME280;49533;-34.520;150.798;2023-05-15T03:57:58;101274.75;;;19.78;61.58
63399;BME280;49533;-34.520;150.798;2023-05-15T04:00:26;101268.78;;;19.76;61.75
63399;BME280;49533;-34.520;150.798;2023-05-15T04:02:53;101261.34;;;19.76;61.59
63399;BME280;49533;-34.520;150.798;2023-05-15T04:05:20;101204.47;;;19.44;61.59
63399;BME280;49533;-34.520;150.798;2023-05-15T04:07:47;101213.38;;;19.53;61.54
63399;BME280;49533;-34.520;150.798;2023-05-15T04:10:15;101259.84;;;19.79;61.71
63399;BME280;49533;-34.520;150.798;2023-05-15T04:12:42;101226.25;;;19.61;61.57
63399;BME280;49533;-34.520;150.798;2023-05-15T04:15:20;101142.41;;;19.06;61.27
63399;BME280;49533;-34.520;150.798;2023-05-15T04:17:48;101258.34;;;19.82;61.57
63399;BME280;49533;-34.520;150.798;2023-05-15T04:20:19;101245.41;;;19.70;61.30
63399;BME280;49533;-34.520;150.798;2023-05-15T04:22:48;101248.00;;;19.79;61.36
63399;BME280;49533;-34.520;150.798;2023-05-15T04:25:15;101256.00;;;19.84;61.04
63399;BME280;49533;-34.520;150.798;2023-05-15T04:27:43;101220.00;;;19.64;61.30
63399;BME280;49533;-34.520;150.798;2023-05-15T04:30:11;101202.09;;;19.58;61.47
63399;BME280;49533;-34.520;150.798;2023-05-15T04:32:39;101209.44;;;19.66;61.35
63399;BME280;49533;-34.520;150.798;2023-05-15T04:35:08;101196.97;;;19.57;61.32
63399;BME280;49533;-34.520;150.798;2023-05-15T04:37:38;101190.53;;;19.52;61.29
63399;BME280;49533;-34.520;150.798;2023-05-15T04:40:06;101243.94;;;19.88;61.06
63399;BME280;49533;-34.520;150.798;2023-05-15T04:42:35;101182.81;;;19.58;61.21
63399;BME280;49533;-34.520;150.798;2023-05-15T04:45:03;101213.91;;;19.71;61.30
63399;BME280;49533;-34.520;150.798;2023-05-15T04:47:30;101205.63;;;19.71;61.25
63399;BME280;49533;-34.520;150.798;2023-05-15T04:49:57;101232.00;;;19.84;60.91
63399;BME280;49533;-34.520;150.798;2023-05-15T04:52:27;101242.06;;;19.92;61.15
63399;BME280;49533;-34.520;150.798;2023-05-15T04:54:55;101232.63;;;19.93;61.13
63399;BME280;49533;-34.520;150.798;2023-05-15T04:57:22;101192.91;;;19.66;61.16
63399;BME280;49533;-34.520;150.798;2023-05-15T04:59:50;101237.63;;;19.88;60.98
63399;BME280;49533;-34.520;150.798;2023-05-15T05:02:21;101232.03;;;20.00;60.87
63399;BME280;49533;-34.520;150.798;2023-05-15T05:04:49;101238.34;;;20.01;61.10
63399;BME280;49533;-34.520;150.798;2023-05-15T05:07:16;101231.66;;;20.02;60.96
63399;BME280;49533;-34.520;150.798;2023-05-15T05:09:44;101211.28;;;19.90;60.70
63399;BME280;49533;-34.520;150.798;2023-05-15T05:12:11;101217.72;;;19.94;60.51
63399;BME280;49533;-34.520;150.798;2023-05-15T05:14:39;101204.00;;;19.82;60.76
63399;BME280;49533;-34.520;150.798;2023-05-15T05:17:07;101227.78;;;20.03;60.60
63399;BME280;49533;-34.520;150.798;2023-05-15T05:19:34;101223.38;;;20.02;60.66
63399;BME280;49533;-34.520;150.798;2023-05-15T05:22:02;101180.94;;;19.74;60.55
63399;BME280;49533;-34.520;150.798;2023-05-15T05:24:31;101175.31;;;19.71;60.46
63399;BME280;49533;-34.520;150.798;2023-05-15T05:26:58;101215.22;;;20.05;60.41
63399;BME280;49533;-34.520;150.798;2023-05-15T05:29:26;101223.94;;;20.07;60.36
63399;BME280;49533;-34.520;150.798;2023-05-15T05:31:53;101189.03;;;19.83;60.47
63399;BME280;49533;-34.520;150.798;2023-05-15T05:34:20;101219.94;;;20.05;60.40
63399;BME280;49533;-34.520;150.798;2023-05-15T05:36:47;101151.44;;;19.63;60.33
63399;BME280;49533;-34.520;150.798;2023-05-15T05:39:15;101197.94;;;19.92;60.46
63399;BME280;49533;-34.520;150.798;2023-05-15T05:41:43;101214.16;;;20.10;60.37
63399;BME280;49533;-34.520;150.798;2023-05-15T05:44:10;101183.72;;;19.90;60.73
63399;BME280;49533;-34.520;150.798;2023-05-15T05:46:37;101191.19;;;20.06;60.53
63399;BME280;49533;-34.520;150.798;2023-05-15T05:49:05;101206.31;;;20.12;60.90
63399;BME280;49533;-34.520;150.798;2023-05-15T05:51:33;101195.72;;;20.14;60.57
63399;BME280;49533;-34.520;150.798;2023-05-15T05:54:02;101170.81;;;19.94;60.78
63399;BME280;49533;-34.520;150.798;2023-05-15T05:56:29;101172.50;;;19.99;60.51
63399;BME280;49533;-34.520;150.798;2023-05-15T05:58:57;101192.53;;;20.12;60.56
63399;BME280;49533;-34.520;150.798;2023-05-15T06:01:27;101192.53;;;20.12;60.67
63399;BME280;49533;-34.520;150.798;2023-05-15T06:03:54;101138.94;;;19.81;60.22
63399;BME280;49533;-34.520;150.798;2023-05-15T06:06:21;101185.06;;;20.12;60.39
63399;BME280;49533;-34.520;150.798;2023-05-15T06:08:48;101171.44;;;20.04;60.63
63399;BME280;49533;-34.520;150.798;2023-05-15T06:11:15;101177.59;;;20.13;60.61
63399;BME280;49533;-34.520;150.798;2023-05-15T06:13:42;101126.50;;;19.71;60.08
63399;BME280;49533;-34.520;150.798;2023-05-15T06:16:09;101148.91;;;19.86;60.47
63399;BME280;49533;-34.520;150.798;2023-05-15T06:18:37;101191.72;;;20.11;60.19
63399;BME280;49533;-34.520;150.798;2023-05-15T06:21:04;101190.59;;;20.12;60.26
63399;BME280;49533;-34.520;150.798;2023-05-15T06:23:31;101188.16;;;20.11;60.14
63399;BME280;49533;-34.520;150.798;2023-05-15T06:25:58;101186.13;;;20.08;60.82
63399;BME280;49533;-34.520;150.798;2023-05-15T06:28:26;101148.13;;;19.85;60.38
63399;BME280;49533;-34.520;150.798;2023-05-15T06:30:54;101195.28;;;20.12;59.90
63399;BME280;49533;-34.520;150.798;2023-05-15T06:33:21;101183.97;;;20.01;60.44
63399;BME280;49533;-34.520;150.798;2023-05-15T06:35:48;101200.78;;;20.12;60.44
63399;BME280;49533;-34.520;150.798;2023-05-15T06:38:16;101199.19;;;20.11;60.47
63399;BME280;49533;-34.520;150.798;2023-05-15T06:40:43;101095.66;;;19.38;60.18
63399;BME280;49533;-34.520;150.798;2023-05-15T06:43:10;101199.56;;;20.09;60.30
63399;BME280;49533;-34.520;150.798;2023-05-15T06:45:37;101200.72;;;20.08;61.07
63399;BME280;49533;-34.520;150.798;2023-05-15T06:48:04;101153.91;;;19.80;60.96
63399;BME280;49533;-34.520;150.798;2023-05-15T06:50:32;101173.84;;;19.89;60.66
63399;BME280;49533;-34.520;150.798;2023-05-15T06:52:59;101174.28;;;19.91;60.52
63399;BME280;49533;-34.520;150.798;2023-05-15T06:55:26;101188.78;;;20.04;59.98
63399;BME280;49533;-34.520;150.798;2023-05-15T06:57:53;101208.66;;;20.10;59.43
63399;BME280;49533;-34.520;150.798;2023-05-15T07:00:20;101191.91;;;20.03;59.90
63399;BME280;49533;-34.520;150.798;2023-05-15T07:02:48;101202.31;;;19.93;59.68
63399;BME280;49533;-34.520;150.798;2023-05-15T07:05:16;101199.72;;;20.01;59.69
63399;BME280;49533;-34.520;150.798;2023-05-15T07:07:43;101158.34;;;19.69;60.47
63399;BME280;49533;-34.520;150.798;2023-05-15T07:10:10;101192.97;;;19.82;60.88
63399;BME280;49533;-34.520;150.798;2023-05-15T07:12:37;101201.84;;;19.91;60.22
63399;BME280;49533;-34.520;150.798;2023-05-15T07:15:05;101207.38;;;19.91;60.10
63399;BME280;49533;-34.520;150.798;2023-05-15T07:17:32;101208.97;;;19.92;59.75
63399;BME280;49533;-34.520;150.798;2023-05-15T07:19:59;101189.03;;;19.83;60.10
63399;BME280;49533;-34.520;150.798;2023-05-15T07:22:27;101201.44;;;19.89;60.41
63399;BME280;49533;-34.520;150.798;2023-05-15T07:24:54;101163.44;;;19.54;60.89
63399;BME280;49533;-34.520;150.798;2023-05-15T07:27:21;101207.88;;;19.81;60.40
63399;BME280;49533;-34.520;150.798;2023-05-15T07:29:48;101207.00;;;19.77;60.64
63399;BME280;49533;-34.520;150.798;2023-05-15T07:32:15;101198.53;;;19.70;60.84
63399;BME280;49533;-34.520;150.798;2023-05-15T07:34:43;101153.44;;;19.34;60.88
63399;BME280;49533;-34.520;150.798;2023-05-15T07:37:10;101220.34;;;19.75;60.80
63399;BME280;49533;-34.520;150.798;2023-05-15T07:39:37;101151.50;;;19.22;60.87
63399;BME280;49533;-34.520;150.798;2023-05-15T07:42:04;101150.47;;;19.27;61.07
63399;BME280;49533;-34.520;150.798;2023-05-15T07:44:32;101216.25;;;19.69;60.90
63399;BME280;49533;-34.520;150.798;2023-05-15T07:46:59;101187.59;;;19.45;60.93
63399;BME280;49533;-34.520;150.798;2023-05-15T07:49:26;101212.34;;;19.58;60.94
63399;BME280;49533;-34.520;150.798;2023-05-15T07:51:53;101223.22;;;19.66;61.08
63399;BME280;49533;-34.520;150.798;2023-05-15T07:54:20;101161.03;;;19.25;60.80
63399;BME280;49533;-34.520;150.798;2023-05-15T07:56:48;101162.09;;;19.20;60.97
63399;BME280;49533;-34.520;150.798;2023-05-15T07:59:15;101225.41;;;19.61;60.99
63399;BME280;49533;-34.520;150.798;2023-05-15T08:01:42;101237.59;;;19.60;60.97
63399;BME280;49533;-34.520;150.798;2023-05-15T08:04:10;101238.41;;;19.60;61.23
63399;BME280;49533;-34.520;150.798;2023-05-15T08:06:37;101229.66;;;19.58;61.19
63399;BME280;49533;-34.520;150.798;2023-05-15T08:09:05;101208.50;;;19.46;61.22
63399;BME280;49533;-34.520;150.798;2023-05-15T08:11:32;101162.22;;;19.11;61.35
63399;BME280;49533;-34.520;150.798;2023-05-15T08:14:02;101122.16;;;18.86;61.31
63399;BME280;49533;-34.520;150.798;2023-05-15T08:16:30;101236.25;;;19.53;61.20
63399;BME280;49533;-34.520;150.798;2023-05-15T08:18:57;101233.84;;;19.52;61.10
63399;BME280;49533;-34.520;150.798;2023-05-15T08:21:27;101203.28;;;19.29;61.27
63399;BME280;49533;-34.520;150.798;2023-05-15T08:23:54;101223.22;;;19.38;61.33
63399;BME280;49533;-34.520;150.798;2023-05-15T08:26:22;101174.28;;;19.07;61.19
63399;BME280;49533;-34.520;150.798;2023-05-15T08:28:49;101200.06;;;19.27;61.17
63399;BME280;49533;-34.520;150.798;2023-05-15T08:31:16;101219.00;;;19.28;61.08
63399;BME280;49533;-34.520;150.798;2023-05-15T08:33:43;101189.44;;;19.13;61.25
63399;BME280;49533;-34.520;150.798;2023-05-15T08:36:11;101233.09;;;19.39;61.38
63399;BME280;49533;-34.520;150.798;2023-05-15T08:38:39;101236.09;;;19.34;61.05
63399;BME280;49533;-34.520;150.798;2023-05-15T08:41:10;101249.84;;;19.46;61.23
63399;BME280;49533;-34.520;150.798;2023-05-15T08:43:40;101127.00;;;18.64;61.36
63399;BME280;49533;-34.520;150.798;2023-05-15T08:46:08;101243.84;;;19.44;61.44
63399;BME280;49533;-34.520;150.798;2023-05-15T08:48:36;101254.44;;;19.42;61.32
63399;BME280;49533;-34.520;150.798;2023-05-15T08:51:08;101241.91;;;19.45;60.94
63399;BME280;49533;-34.520;150.798;2023-05-15T08:53:36;101190.94;;;19.10;60.77
63399;BME280;49533;-34.520;150.798;2023-05-15T08:56:04;101241.56;;;19.46;60.99
63399;BME280;49533;-34.520;150.798;2023-05-15T08:58:32;101249.38;;;19.44;60.64
63399;BME280;49533;-34.520;150.798;2023-05-15T09:00:59;101241.56;;;19.46;60.63
63399;BME280;49533;-34.520;150.798;2023-05-15T09:03:27;101187.03;;;19.11;60.48
63399;BME280;49533;-34.520;150.798;2023-05-15T09:05:54;100783.31;;;16.48;60.42
63399;BME280;49533;-34.520;150.798;2023-05-15T09:08:24;101247.78;;;19.43;60.40
63399;BME280;49533;-34.520;150.798;2023-05-15T09:10:52;101247.31;;;19.41;60.42
63399;BME280;49533;-34.520;150.798;2023-05-15T09:13:21;101233.56;;;19.29;60.54
63399;BME280;49533;-34.520;150.798;2023-05-15T09:15:48;101238.28;;;19.28;60.48
63399;BME280;49533;-34.520;150.798;2023-05-15T09:18:17;101241.03;;;19.28;60.40
63399;BME280;49533;-34.520;150.798;2023-05-15T09:20:44;101258.59;;;19.36;60.38
63399;BME280;49533;-34.520;150.798;2023-05-15T09:23:26;101253.78;;;19.33;60.48
63399;BME280;49533;-34.520;150.798;2023-05-15T09:25:53;101215.03;;;19.01;60.30
63399;BME280;49533;-34.520;150.798;2023-05-15T09:28:28;101252.88;;;19.29;60.56
63399;BME280;49533;-34.520;150.798;2023-05-15T09:30:58;101254.38;;;19.26;60.51
63399;BME280;49533;-34.520;150.798;2023-05-15T09:33:28;101222.19;;;19.02;60.37
63399;BME280;49533;-34.520;150.798;2023-05-15T09:35:56;101230.53;;;19.06;60.32
63399;BME280;49533;-34.520;150.798;2023-05-15T09:38:23;101236.59;;;19.11;60.19
63399;BME280;49533;-34.520;150.798;2023-05-15T09:40:53;101253.09;;;19.24;60.39
63399;BME280;49533;-34.520;150.798;2023-05-15T09:43:28;101244.13;;;19.27;60.42
63399;BME280;49533;-34.520;150.798;2023-05-15T09:45:59;101248.06;;;19.26;60.05
63399;BME280;49533;-34.520;150.798;2023-05-15T09:48:26;101249.88;;;19.22;60.34
63399;BME280;49533;-34.520;150.798;2023-05-15T09:50:53;101248.31;;;19.21;60.26
63399;BME280;49533;-34.520;150.798;2023-05-15T09:53:22;101192.16;;;18.85;60.36
63399;BME280;49533;-34.520;150.798;2023-05-15T09:55:50;101238.78;;;19.18;60.34
63399;BME280;49533;-34.520;150.798;2023-05-15T09:58:18;101174.69;;;18.68;60.16
63399;BME280;49533;-34.520;150.798;2023-05-15T10:00:46;101249.00;;;19.18;60.21
63399;BME280;49533;-34.520;150.798;2023-05-15T10:03:14;101208.66;;;18.97;60.20
63399;BME280;49533;-34.520;150.798;2023-05-15T10:05:41;101175.28;;;18.74;60.12
63399;BME280;49533;-34.520;150.798;2023-05-15T10:08:08;101236.72;;;19.15;60.12
63399;BME280;49533;-34.520;150.798;2023-05-15T10:10:35;101232.34;;;19.14;60.14
63399;BME280;49533;-34.520;150.798;2023-05-15T10:13:03;101240.59;;;19.14;60.06
63399;BME280;49533;-34.520;150.798;2023-05-15T10:15:32;101185.94;;;18.76;60.21
63399;BME280;49533;-34.520;150.798;2023-05-15T10:17:59;101133.78;;;18.42;60.08
63399;BME280;49533;-34.520;150.798;2023-05-15T10:20:27;101168.41;;;18.56;59.90
63399;BME280;49533;-34.520;150.798;2023-05-15T10:22:55;101204.09;;;18.77;60.45
63399;BME280;49533;-34.520;150.798;2023-05-15T10:25:44;101250.59;;;19.06;60.22
63399;BME280;49533;-34.520;150.798;2023-05-15T10:28:16;101228.59;;;18.94;60.18
63399;BME280;49533;-34.520;150.798;2023-05-15T10:30:44;101099.31;;;18.08;59.96
63399;BME280;49533;-34.520;150.798;2023-05-15T10:33:12;101020.22;;;17.56;59.96
63399;BME280;49533;-34.520;150.798;2023-05-15T10:35:40;101248.88;;;19.02;60.04
63399;BME280;49533;-34.520;150.798;2023-05-15T10:38:08;101127.84;;;18.16;60.19
63399;BME280;49533;-34.520;150.798;2023-05-15T10:40:37;101202.56;;;18.55;59.84
63399;BME280;49533;-34.520;150.798;2023-05-15T10:43:08;101253.97;;;19.00;59.93
63399;BME280;49533;-34.520;150.798;2023-05-15T10:45:37;101247.53;;;18.96;60.12
63399;BME280;49533;-34.520;150.798;2023-05-15T10:48:05;101251.00;;;18.93;60.19
63399;BME280;49533;-34.520;150.798;2023-05-15T10:50:35;101252.94;;;18.92;59.96
63399;BME280;49533;-34.520;150.798;2023-05-15T10:53:03;101191.81;;;18.50;60.14
63399;BME280;49533;-34.520;150.798;2023-05-15T10:55:31;101220.34;;;18.69;60.13
63399;BME280;49533;-34.520;150.798;2023-05-15T10:57:58;101253.28;;;18.90;60.13
63399;BME280;49533;-34.520;150.798;2023-05-15T11:00:28;101153.63;;;18.23;60.00
63399;BME280;49533;-34.520;150.798;2023-05-15T11:02:56;101112.38;;;17.99;59.97
63399;BME280;49533;-34.520;150.798;2023-05-15T11:05:26;101246.06;;;18.86;60.02
63399;BME280;49533;-34.520;150.798;2023-05-15T11:08:24;101243.66;;;18.84;59.98
63399;BME280;49533;-34.520;150.798;2023-05-15T11:10:51;101254.31;;;18.86;59.87
63399;BME280;49533;-34.520;150.798;2023-05-15T11:13:20;101228.25;;;18.71;59.87
63399;BME280;49533;-34.520;150.798;2023-05-15T11:15:48;101230.66;;;18.73;59.68
63399;BME280;49533;-34.520;150.798;2023-05-15T11:18:15;101234.94;;;18.82;59.69
63399;BME280;49533;-34.520;150.798;2023-05-15T11:21:04;101236.06;;;18.81;59.77
63399;BME280;49533;-34.520;150.798;2023-05-15T11:23:38;101227.44;;;18.71;59.70
63399;BME280;49533;-34.520;150.798;2023-05-15T11:26:06;101229.75;;;18.81;59.57
63399;BME280;49533;-34.520;150.798;2023-05-15T11:28:40;101231.25;;;18.78;59.81
63399;BME280;49533;-34.520;150.798;2023-05-15T11:31:09;101178.75;;;18.46;59.42
63399;BME280;49533;-34.520;150.798;2023-05-15T11:33:37;101161.53;;;18.37;59.58
63399;BME280;49533;-34.520;150.798;2023-05-15T11:36:06;101226.13;;;18.77;59.70
63399;BME280;49533;-34.520;150.798;2023-05-15T11:38:37;101192.38;;;18.55;59.58
63399;BME280;49533;-34.520;150.798;2023-05-15T11:41:18;101156.63;;;18.31;59.52
63399;BME280;49533;-34.520;150.798;2023-05-15T11:43:47;101218.97;;;18.76;59.62
63399;BME280;49533;-34.520;150.798;2023-05-15T11:46:15;101214.28;;;18.76;59.59
63399;BME280;49533;-34.520;150.798;2023-05-15T11:48:45;101214.63;;;18.75;59.45
63399;BME280;49533;-34.520;150.798;2023-05-15T11:51:19;101203.13;;;18.73;59.73
63399;BME280;49533;-34.520;150.798;2023-05-15T11:53:49;101078.13;;;17.96;59.63
63399;BME280;49533;-34.520;150.798;2023-05-15T11:56:18;101174.91;;;18.63;59.71
63399;BME280;49533;-34.520;150.798;2023-05-15T11:58:49;101195.22;;;18.71;59.55
63399;BME280;49533;-34.520;150.798;2023-05-15T12:01:16;101151.09;;;18.43;59.72
63399;BME280;49533;-34.520;150.798;2023-05-15T12:03:46;101184.09;;;18.67;59.72
63399;BME280;49533;-34.520;150.798;2023-05-15T12:06:15;101137.56;;;18.38;59.71
63399;BME280;49533;-34.520;150.798;2023-05-15T12:08:42;101195.13;;;18.67;59.73
63399;BME280;49533;-34.520;150.798;2023-05-15T12:11:10;101172.31;;;18.67;59.59
63399;BME280;49533;-34.520;150.798;2023-05-15T12:13:38;101153.50;;;18.57;59.58
63399;BME280;49533;-34.520;150.798;2023-05-15T12:16:05;101144.91;;;18.46;59.66
63399;BME280;49533;-34.520;150.798;2023-05-15T12:18:32;101165.88;;;18.63;59.71
63399;BME280;49533;-34.520;150.798;2023-05-15T12:20:59;101125.91;;;18.41;59.53
63399;BME280;49533;-34.520;150.798;2023-05-15T12:23:27;101146.59;;;18.63;59.56
63399;BME280;49533;-34.520;150.798;2023-05-15T12:25:57;101109.03;;;18.30;59.63
63399;BME280;49533;-34.520;150.798;2023-05-15T12:28:26;101151.66;;;18.61;59.65